sensor_id;sensor_type;location;lat;lon;timestamp;P1;durP1;ratioP1;P2;durP2;ratioP2
72920;SDS011;61064;51.654;5.476;2022-07-04T00:00:41;5.00;;;1.37;;
72920;SDS011;61064;51.654;5.476;2022-07-04T00:03:07;6.18;;;1.33;;
72920;SDS011;61064;51.654;5.476;2022-07-04T00:05:32;6.07;;;1.40;;
72920;SDS011;61064;51.654;5.476;2022-07-04T00:07:58;5.97;;;1.60;;
72920;SDS011;61064;51.654;5.476;2022-07-04T00:10:23;6.37;;;1.40;;
72920;SDS011;61064;51.654;5.476;2022-07-04T00:12:49;5.43;;;1.38;;
72920;SDS011;61064;51.654;5.476;2022-07-04T00:15:15;6.30;;;1.58;;
72920;SDS011;61064;51.654;5.476;2022-07-04T00:17:40;7.23;;;1.47;;
72920;SDS011;61064;51.654;5.476;2022-07-04T00:20:06;7.00;;;1.90;;
72920;SDS011;61064;51.654;5.476;2022-07-04T00:22:33;5.80;;;1.60;;
72920;SDS011;61064;51.654;5.476;2022-07-04T00:24:58;8.00;;;1.52;;
72920;SDS011;61064;51.654;5.476;2022-07-04T00:27:24;7.33;;;1.80;;
72920;SDS011;61064;51.654;5.476;2022-07-04T00:29:50;6.83;;;1.70;;
72920;SDS011;61064;51.654;5.476;2022-07-04T00:32:16;9.30;;;1.85;;
72920;SDS011;61064;51.654;5.476;2022-07-04T00:34:41;7.13;;;1.77;;
72920;SDS011;61064;51.654;5.476;2022-07-04T00:37:07;6.95;;;1.83;;
72920;SDS011;61064;51.654;5.476;2022-07-04T00:39:32;4.60;;;1.50;;
72920;SDS011;61064;51.654;5.476;2022-07-04T00:41:58;5.88;;;1.60;;
72920;SDS011;61064;51.654;5.476;2022-07-04T00:44:23;6.80;;;1.47;;
72920;SDS011;61064;51.654;5.476;2022-07-04T00:46:49;6.17;;;1.70;;
72920;SDS011;61064;51.654;5.476;2022-07-04T00:49:16;6.18;;;1.90;;
72920;SDS011;61064;51.654;5.476;2022-07-04T00:51:42;9.10;;;2.10;;
72920;SDS011;61064;51.654;5.476;2022-07-04T00:54:10;7.63;;;1.77;;
72920;SDS011;61064;51.654;5.476;2022-07-04T00:56:39;11.38;;;1.90;;
72920;SDS011;61064;51.654;5.476;2022-07-04T00:59:07;9.13;;;2.10;;
72920;SDS011;61064;51.654;5.476;2022-07-04T01:01:34;10.32;;;2.05;;
72920;SDS011;61064;51.654;5.476;2022-07-04T01:04:01;8.23;;;2.30;;
72920;SDS011;61064;51.654;5.476;2022-07-04T01:06:27;8.25;;;2.20;;
72920;SDS011;61064;51.654;5.476;2022-07-04T01:08:54;6.68;;;2.20;;
72920;SDS011;61064;51.654;5.476;2022-07-04T01:11:20;8.57;;;2.65;;
72920;SDS011;61064;51.654;5.476;2022-07-04T01:13:46;9.10;;;2.30;;
72920;SDS011;61064;51.654;5.476;2022-07-04T01:16:12;7.70;;;2.13;;
72920;SDS011;61064;51.654;5.476;2022-07-04T01:18:38;7.73;;;2.30;;
72920;SDS011;61064;51.654;5.476;2022-07-04T01:21:04;7.70;;;2.30;;
72920;SDS011;61064;51.654;5.476;2022-07-04T01:23:29;6.07;;;2.13;;
72920;SDS011;61064;51.654;5.476;2022-07-04T01:25:55;9.17;;;2.53;;
72920;SDS011;61064;51.654;5.476;2022-07-04T01:28:22;7.97;;;1.95;;
72920;SDS011;61064;51.654;5.476;2022-07-04T01:30:48;9.60;;;2.33;;
72920;SDS011;61064;51.654;5.476;2022-07-04T01:33:14;8.63;;;2.07;;
72920;SDS011;61064;51.654;5.476;2022-07-04T01:35:42;7.15;;;2.13;;
72920;SDS011;61064;51.654;5.476;2022-07-04T01:38:07;7.90;;;1.90;;
72920;SDS011;61064;51.654;5.476;2022-07-04T01:40:33;8.90;;;2.10;;
72920;SDS011;61064;51.654;5.476;2022-07-04T01:42:58;7.27;;;1.90;;
72920;SDS011;61064;51.654;5.476;2022-07-04T01:45:24;7.43;;;2.20;;
72920;SDS011;61064;51.654;5.476;2022-07-04T01:47:50;7.85;;;2.10;;
72920;SDS011;61064;51.654;5.476;2022-07-04T01:50:16;6.33;;;2.17;;
72920;SDS011;61064;51.654;5.476;2022-07-04T01:52:42;7.35;;;2.30;;
72920;SDS011;61064;51.654;5.476;2022-07-04T01:55:09;7.22;;;2.42;;
72920;SDS011;61064;51.654;5.476;2022-07-04T01:57:36;7.22;;;2.22;;
72920;SDS011;61064;51.654;5.476;2022-07-04T02:00:03;8.90;;;2.58;;
72920;SDS011;61064;51.654;5.476;2022-07-04T02:02:49;6.93;;;2.37;;
72920;SDS011;61064;51.654;5.476;2022-07-04T02:05:14;7.07;;;2.40;;
72920;SDS011;61064;51.654;5.476;2022-07-04T02:07:40;9.30;;;2.80;;
72920;SDS011;61064;51.654;5.476;2022-07-04T02:10:05;7.53;;;2.70;;
72920;SDS011;61064;51.654;5.476;2022-07-04T02:12:31;8.13;;;2.60;;
72920;SDS011;61064;51.654;5.476;2022-07-04T02:15:15;9.67;;;3.00;;
72920;SDS011;61064;51.654;5.476;2022-07-04T02:17:40;8.30;;;3.10;;
72920;SDS011;61064;51.654;5.476;2022-07-04T02:20:05;8.88;;;2.72;;
72920;SDS011;61064;51.654;5.476;2022-07-04T02:22:31;9.63;;;2.97;;
72920;SDS011;61064;51.654;5.476;2022-07-04T02:24:57;7.60;;;3.30;;
72920;SDS011;61064;51.654;5.476;2022-07-04T02:27:22;7.57;;;2.73;;
72920;SDS011;61064;51.654;5.476;2022-07-04T02:29:48;8.13;;;2.90;;
72920;SDS011;61064;51.654;5.476;2022-07-04T02:32:13;8.27;;;3.03;;
72920;SDS011;61064;51.654;5.476;2022-07-04T02:34:39;9.40;;;3.10;;
72920;SDS011;61064;51.654;5.476;2022-07-04T02:37:04;8.40;;;3.20;;
72920;SDS011;61064;51.654;5.476;2022-07-04T02:39:30;7.57;;;3.03;;
72920;SDS011;61064;51.654;5.476;2022-07-04T02:41:55;9.30;;;2.90;;
72920;SDS011;61064;51.654;5.476;2022-07-04T02:44:20;7.83;;;2.80;;
72920;SDS011;61064;51.654;5.476;2022-07-04T02:46:46;8.63;;;3.07;;
72920;SDS011;61064;51.654;5.476;2022-07-04T02:49:11;12.53;;;2.87;;
72920;SDS011;61064;51.654;5.476;2022-07-04T02:51:37;8.20;;;2.70;;
72920;SDS011;61064;51.654;5.476;2022-07-04T02:54:02;7.43;;;2.70;;
72920;SDS011;61064;51.654;5.476;2022-07-04T02:56:28;6.87;;;2.80;;
72920;SDS011;61064;51.654;5.476;2022-07-04T02:58:55;6.73;;;2.77;;
72920;SDS011;61064;51.654;5.476;2022-07-04T03:01:20;8.75;;;2.83;;
72920;SDS011;61064;51.654;5.476;2022-07-04T03:03:46;8.38;;;3.05;;
72920;SDS011;61064;51.654;5.476;2022-07-04T03:06:12;6.93;;;2.60;;
72920;SDS011;61064;51.654;5.476;2022-07-04T03:08:37;7.82;;;2.97;;
72920;SDS011;61064;51.654;5.476;2022-07-04T03:11:03;7.93;;;2.70;;
72920;SDS011;61064;51.654;5.476;2022-07-04T03:13:29;7.70;;;2.85;;
72920;SDS011;61064;51.654;5.476;2022-07-04T03:15:54;6.93;;;2.47;;
72920;SDS011;61064;51.654;5.476;2022-07-04T03:18:20;9.03;;;2.80;;
72920;SDS011;61064;51.654;5.476;2022-07-04T03:20:46;8.07;;;2.95;;
72920;SDS011;61064;51.654;5.476;2022-07-04T03:23:12;8.77;;;3.00;;
72920;SDS011;61064;51.654;5.476;2022-07-04T03:25:38;8.00;;;2.72;;
72920;SDS011;61064;51.654;5.476;2022-07-04T03:28:05;7.50;;;3.10;;
72920;SDS011;61064;51.654;5.476;2022-07-04T03:30:31;10.13;;;3.30;;
72920;SDS011;61064;51.654;5.476;2022-07-04T03:32:56;7.83;;;3.20;;
72920;SDS011;61064;51.654;5.476;2022-07-04T03:35:22;7.47;;;2.95;;
72920;SDS011;61064;51.654;5.476;2022-07-04T03:37:47;9.17;;;3.00;;
72920;SDS011;61064;51.654;5.476;2022-07-04T03:40:12;7.53;;;2.93;;
72920;SDS011;61064;51.654;5.476;2022-07-04T03:42:38;7.00;;;3.07;;
72920;SDS011;61064;51.654;5.476;2022-07-04T03:45:03;9.63;;;2.97;;
72920;SDS011;61064;51.654;5.476;2022-07-04T03:47:31;7.87;;;2.87;;
72920;SDS011;61064;51.654;5.476;2022-07-04T03:49:56;10.57;;;3.15;;
72920;SDS011;61064;51.654;5.476;2022-07-04T03:52:22;6.77;;;2.80;;
72920;SDS011;61064;51.654;5.476;2022-07-04T03:54:47;8.67;;;3.00;;
72920;SDS011;61064;51.654;5.476;2022-07-04T03:57:12;8.30;;;3.07;;
72920;SDS011;61064;51.654;5.476;2022-07-04T03:59:38;7.78;;;3.20;;
72920;SDS011;61064;51.654;5.476;2022-07-04T04:02:03;8.20;;;3.17;;
72920;SDS011;61064;51.654;5.476;2022-07-04T04:04:29;9.67;;;3.50;;
72920;SDS011;61064;51.654;5.476;2022-07-04T04:07:13;9.55;;;3.30;;
72920;SDS011;61064;51.654;5.476;2022-07-04T04:09:39;9.52;;;3.10;;
72920;SDS011;61064;51.654;5.476;2022-07-04T04:12:05;8.83;;;3.30;;
72920;SDS011;61064;51.654;5.476;2022-07-04T04:14:30;8.20;;;2.95;;
72920;SDS011;61064;51.654;5.476;2022-07-04T04:16:56;10.37;;;3.23;;
72920;SDS011;61064;51.654;5.476;2022-07-04T04:19:21;12.30;;;3.50;;
72920;SDS011;61064;51.654;5.476;2022-07-04T04:21:47;7.90;;;2.97;;
72920;SDS011;61064;51.654;5.476;2022-07-04T04:24:12;10.33;;;3.63;;
72920;SDS011;61064;51.654;5.476;2022-07-04T04:26:37;8.30;;;3.25;;
72920;SDS011;61064;51.654;5.476;2022-07-04T04:29:03;8.30;;;3.13;;
72920;SDS011;61064;51.654;5.476;2022-07-04T04:31:28;10.53;;;3.50;;
72920;SDS011;61064;51.654;5.476;2022-07-04T04:33:55;10.07;;;3.53;;
72920;SDS011;61064;51.654;5.476;2022-07-04T04:36:21;7.60;;;3.05;;
72920;SDS011;61064;51.654;5.476;2022-07-04T04:38:46;9.30;;;3.40;;
72920;SDS011;61064;51.654;5.476;2022-07-04T04:41:12;8.53;;;3.47;;
72920;SDS011;61064;51.654;5.476;2022-07-04T04:43:37;11.27;;;3.90;;
72920;SDS011;61064;51.654;5.476;2022-07-04T04:46:03;9.53;;;3.20;;
72920;SDS011;61064;51.654;5.476;2022-07-04T04:48:28;12.17;;;4.10;;
72920;SDS011;61064;51.654;5.476;2022-07-04T04:50:53;9.60;;;3.80;;
72920;SDS011;61064;51.654;5.476;2022-07-04T04:53:19;10.27;;;3.70;;
72920;SDS011;61064;51.654;5.476;2022-07-04T04:55:47;8.93;;;3.53;;
72920;SDS011;61064;51.654;5.476;2022-07-04T04:58:13;9.10;;;3.73;;
72920;SDS011;61064;51.654;5.476;2022-07-04T05:00:38;11.60;;;4.07;;
72920;SDS011;61064;51.654;5.476;2022-07-04T05:03:03;11.03;;;3.77;;
72920;SDS011;61064;51.654;5.476;2022-07-04T05:05:29;9.77;;;3.60;;
72920;SDS011;61064;51.654;5.476;2022-07-04T05:07:54;9.73;;;3.80;;
72920;SDS011;61064;51.654;5.476;2022-07-04T05:10:20;9.75;;;3.97;;
72920;SDS011;61064;51.654;5.476;2022-07-04T05:12:46;9.40;;;4.00;;
72920;SDS011;61064;51.654;5.476;2022-07-04T05:15:11;8.77;;;4.23;;
72920;SDS011;61064;51.654;5.476;2022-07-04T05:17:36;9.57;;;4.10;;
72920;SDS011;61064;51.654;5.476;2022-07-04T05:20:02;9.20;;;4.00;;
72920;SDS011;61064;51.654;5.476;2022-07-04T05:22:28;9.55;;;3.92;;
72920;SDS011;61064;51.654;5.476;2022-07-04T05:24:53;8.77;;;4.10;;
72920;SDS011;61064;51.654;5.476;2022-07-04T05:27:19;8.60;;;4.20;;
72920;SDS011;61064;51.654;5.476;2022-07-04T05:29:44;14.10;;;4.20;;
72920;SDS011;61064;51.654;5.476;2022-07-04T05:32:09;11.18;;;4.70;;
72920;SDS011;61064;51.654;5.476;2022-07-04T05:34:35;10.23;;;3.53;;
72920;SDS011;61064;51.654;5.476;2022-07-04T05:37:01;9.50;;;3.80;;
72920;SDS011;61064;51.654;5.476;2022-07-04T05:39:27;9.55;;;3.53;;
72920;SDS011;61064;51.654;5.476;2022-07-04T05:41:53;8.88;;;3.70;;
72920;SDS011;61064;51.654;5.476;2022-07-04T05:44:19;8.67;;;3.37;;
72920;SDS011;61064;51.654;5.476;2022-07-04T05:46:44;8.97;;;3.20;;
72920;SDS011;61064;51.654;5.476;2022-07-04T05:49:09;10.10;;;3.30;;
72920;SDS011;61064;51.654;5.476;2022-07-04T05:51:35;10.43;;;3.20;;
72920;SDS011;61064;51.654;5.476;2022-07-04T05:54:00;10.63;;;3.53;;
72920;SDS011;61064;51.654;5.476;2022-07-04T05:56:25;7.60;;;3.10;;
72920;SDS011;61064;51.654;5.476;2022-07-04T05:58:51;11.17;;;3.10;;
72920;SDS011;61064;51.654;5.476;2022-07-04T06:01:17;7.88;;;3.13;;
72920;SDS011;61064;51.654;5.476;2022-07-04T06:03:42;10.27;;;3.37;;
72920;SDS011;61064;51.654;5.476;2022-07-04T06:06:08;9.70;;;2.97;;
72920;SDS011;61064;51.654;5.476;2022-07-04T06:08:33;9.47;;;3.10;;
72920;SDS011;61064;51.654;5.476;2022-07-04T06:10:58;10.27;;;3.10;;
72920;SDS011;61064;51.654;5.476;2022-07-04T06:13:24;7.80;;;2.90;;
72920;SDS011;61064;51.654;5.476;2022-07-04T06:15:49;9.45;;;3.28;;
72920;SDS011;61064;51.654;5.476;2022-07-04T06:18:15;8.30;;;3.30;;
72920;SDS011;61064;51.654;5.476;2022-07-04T06:20:40;10.00;;;3.10;;
72920;SDS011;61064;51.654;5.476;2022-07-04T06:23:06;9.10;;;2.97;;
72920;SDS011;61064;51.654;5.476;2022-07-04T06:25:32;8.67;;;2.70;;
72920;SDS011;61064;51.654;5.476;2022-07-04T06:27:58;8.85;;;3.13;;
72920;SDS011;61064;51.654;5.476;2022-07-04T06:30:23;8.37;;;3.07;;
72920;SDS011;61064;51.654;5.476;2022-07-04T06:35:19;9.90;;;2.75;;
72920;SDS011;61064;51.654;5.476;2022-07-04T06:38:19;7.63;;;2.55;;
72920;SDS011;61064;51.654;5.476;2022-07-04T06:40:55;7.90;;;2.97;;
72920;SDS011;61064;51.654;5.476;2022-07-04T06:43:22;10.75;;;3.20;;
72920;SDS011;61064;51.654;5.476;2022-07-04T06:45:48;9.97;;;3.27;;
72920;SDS011;61064;51.654;5.476;2022-07-04T06:48:13;8.87;;;3.03;;
72920;SDS011;61064;51.654;5.476;2022-07-04T06:50:38;11.75;;;3.13;;
72920;SDS011;61064;51.654;5.476;2022-07-04T06:53:04;7.77;;;2.70;;
72920;SDS011;61064;51.654;5.476;2022-07-04T06:55:31;10.40;;;2.90;;
72920;SDS011;61064;51.654;5.476;2022-07-04T06:57:57;8.70;;;2.53;;
72920;SDS011;61064;51.654;5.476;2022-07-04T07:00:23;9.40;;;2.50;;
72920;SDS011;61064;51.654;5.476;2022-07-04T07:02:49;9.73;;;2.88;;
72920;SDS011;61064;51.654;5.476;2022-07-04T07:05:14;11.57;;;2.67;;
72920;SDS011;61064;51.654;5.476;2022-07-04T07:07:39;10.10;;;2.67;;
72920;SDS011;61064;51.654;5.476;2022-07-04T07:10:05;10.50;;;2.77;;
72920;SDS011;61064;51.654;5.476;2022-07-04T07:12:32;8.57;;;2.30;;
72920;SDS011;61064;51.654;5.476;2022-07-04T07:14:58;10.10;;;2.55;;
72920;SDS011;61064;51.654;5.476;2022-07-04T07:17:23;8.60;;;2.30;;
72920;SDS011;61064;51.654;5.476;2022-07-04T07:19:49;9.85;;;2.53;;
72920;SDS011;61064;51.654;5.476;2022-07-04T07:22:14;10.90;;;2.60;;
72920;SDS011;61064;51.654;5.476;2022-07-04T07:24:40;9.80;;;2.33;;
72920;SDS011;61064;51.654;5.476;2022-07-04T07:27:06;9.45;;;2.30;;
72920;SDS011;61064;51.654;5.476;2022-07-04T07:29:31;11.83;;;2.40;;
72920;SDS011;61064;51.654;5.476;2022-07-04T07:31:57;7.43;;;2.38;;
72920;SDS011;61064;51.654;5.476;2022-07-04T07:34:23;9.43;;;2.97;;
72920;SDS011;61064;51.654;5.476;2022-07-04T07:36:48;8.60;;;2.53;;
72920;SDS011;61064;51.654;5.476;2022-07-04T07:39:14;8.97;;;2.67;;
72920;SDS011;61064;51.654;5.476;2022-07-04T07:41:39;10.40;;;2.90;;
72920;SDS011;61064;51.654;5.476;2022-07-04T07:44:05;11.63;;;3.47;;
72920;SDS011;61064;51.654;5.476;2022-07-04T07:46:30;9.70;;;2.93;;
72920;SDS011;61064;51.654;5.476;2022-07-04T07:48:55;10.37;;;2.70;;
72920;SDS011;61064;51.654;5.476;2022-07-04T07:51:21;9.43;;;2.83;;
72920;SDS011;61064;51.654;5.476;2022-07-04T07:53:46;9.77;;;2.33;;
72920;SDS011;61064;51.654;5.476;2022-07-04T07:56:12;7.47;;;2.27;;
72920;SDS011;61064;51.654;5.476;2022-07-04T07:58:38;10.13;;;2.30;;
72920;SDS011;61064;51.654;5.476;2022-07-04T08:01:03;8.38;;;2.42;;
72920;SDS011;61064;51.654;5.476;2022-07-04T08:03:28;7.70;;;2.00;;
72920;SDS011;61064;51.654;5.476;2022-07-04T08:06:13;9.73;;;2.00;;
72920;SDS011;61064;51.654;5.476;2022-07-04T08:08:39;12.07;;;2.10;;
72920;SDS011;61064;51.654;5.476;2022-07-04T08:11:05;8.38;;;2.10;;
72920;SDS011;61064;51.654;5.476;2022-07-04T08:13:30;9.17;;;2.03;;
72920;SDS011;61064;51.654;5.476;2022-07-04T08:15:57;8.70;;;1.97;;
72920;SDS011;61064;51.654;5.476;2022-07-04T08:18:22;8.65;;;2.03;;
72920;SDS011;61064;51.654;5.476;2022-07-04T08:20:48;7.10;;;1.70;;
72920;SDS011;61064;51.654;5.476;2022-07-04T08:23:15;9.48;;;1.80;;
72920;SDS011;61064;51.654;5.476;2022-07-04T08:25:41;8.38;;;1.90;;
72920;SDS011;61064;51.654;5.476;2022-07-04T08:28:06;9.03;;;1.93;;
72920;SDS011;61064;51.654;5.476;2022-07-04T08:30:32;7.35;;;1.80;;
72920;SDS011;61064;51.654;5.476;2022-07-04T08:32:57;10.13;;;2.03;;
72920;SDS011;61064;51.654;5.476;2022-07-04T08:35:23;13.03;;;2.20;;
72920;SDS011;61064;51.654;5.476;2022-07-04T08:37:49;10.80;;;2.00;;
72920;SDS011;61064;51.654;5.476;2022-07-04T08:40:19;9.13;;;1.70;;
72920;SDS011;61064;51.654;5.476;2022-07-04T08:42:48;8.77;;;1.75;;
72920;SDS011;61064;51.654;5.476;2022-07-04T08:45:15;10.45;;;2.10;;
72920;SDS011;61064;51.654;5.476;2022-07-04T08:47:41;10.03;;;1.90;;
72920;SDS011;61064;51.654;5.476;2022-07-04T08:50:09;9.75;;;1.88;;
72920;SDS011;61064;51.654;5.476;2022-07-04T08:52:54;9.15;;;2.25;;
72920;SDS011;61064;51.654;5.476;2022-07-04T08:55:25;9.65;;;2.10;;
72920;SDS011;61064;51.654;5.476;2022-07-04T08:58:09;8.35;;;2.40;;
72920;SDS011;61064;51.654;5.476;2022-07-04T09:00:50;9.90;;;2.13;;
72920;SDS011;61064;51.654;5.476;2022-07-04T09:03:17;7.72;;;2.05;;
72920;SDS011;61064;51.654;5.476;2022-07-04T09:05:44;12.25;;;2.58;;
72920;SDS011;61064;51.654;5.476;2022-07-04T09:08:09;9.73;;;2.40;;
72920;SDS011;61064;51.654;5.476;2022-07-04T09:10:35;11.47;;;2.50;;
72920;SDS011;61064;51.654;5.476;2022-07-04T09:13:01;12.43;;;2.15;;
72920;SDS011;61064;51.654;5.476;2022-07-04T09:15:28;9.43;;;2.53;;
72920;SDS011;61064;51.654;5.476;2022-07-04T09:17:54;9.40;;;2.47;;
72920;SDS011;61064;51.654;5.476;2022-07-04T09:20:20;7.87;;;2.17;;
72920;SDS011;61064;51.654;5.476;2022-07-04T09:22:48;12.57;;;2.65;;
72920;SDS011;61064;51.654;5.476;2022-07-04T09:25:16;9.85;;;1.80;;
72920;SDS011;61064;51.654;5.476;2022-07-04T09:27:46;7.80;;;2.50;;
72920;SDS011;61064;51.654;5.476;2022-07-04T09:30:16;11.40;;;2.20;;
72920;SDS011;61064;51.654;5.476;2022-07-04T09:32:47;9.02;;;1.90;;
72920;SDS011;61064;51.654;5.476;2022-07-04T09:35:19;8.35;;;2.03;;
72920;SDS011;61064;51.654;5.476;2022-07-04T09:37:51;8.60;;;1.90;;
72920;SDS011;61064;51.654;5.476;2022-07-04T09:40:21;6.13;;;1.50;;
72920;SDS011;61064;51.654;5.476;2022-07-04T09:42:51;7.43;;;1.40;;
72920;SDS011;61064;51.654;5.476;2022-07-04T09:45:17;6.90;;;1.50;;
72920;SDS011;61064;51.654;5.476;2022-07-04T09:47:44;6.65;;;1.40;;
72920;SDS011;61064;51.654;5.476;2022-07-04T09:52:46;7.38;;;1.67;;
72920;SDS011;61064;51.654;5.476;2022-07-04T09:57:47;8.43;;;1.30;;
72920;SDS011;61064;51.654;5.476;2022-07-04T10:00:24;8.20;;;1.23;;
72920;SDS011;61064;51.654;5.476;2022-07-04T10:02:52;7.93;;;1.30;;
72920;SDS011;61064;51.654;5.476;2022-07-04T10:05:19;7.17;;;1.40;;
72920;SDS011;61064;51.654;5.476;2022-07-04T10:07:46;7.55;;;1.45;;
72920;SDS011;61064;51.654;5.476;2022-07-04T10:10:29;7.43;;;1.30;;
72920;SDS011;61064;51.654;5.476;2022-07-04T10:13:06;6.85;;;1.20;;
72920;SDS011;61064;51.654;5.476;2022-07-04T10:15:33;8.35;;;1.45;;
72920;SDS011;61064;51.654;5.476;2022-07-04T10:18:02;7.00;;;1.10;;
72920;SDS011;61064;51.654;5.476;2022-07-04T10:20:28;6.78;;;1.10;;
72920;SDS011;61064;51.654;5.476;2022-07-04T10:22:53;7.20;;;1.07;;
72920;SDS011;61064;51.654;5.476;2022-07-04T10:25:19;6.00;;;1.10;;
72920;SDS011;61064;51.654;5.476;2022-07-04T10:27:44;6.03;;;1.37;;
72920;SDS011;61064;51.654;5.476;2022-07-04T10:30:11;6.80;;;1.40;;
72920;SDS011;61064;51.654;5.476;2022-07-04T10:32:40;6.55;;;1.50;;
72920;SDS011;61064;51.654;5.476;2022-07-04T10:35:08;8.10;;;1.50;;
72920;SDS011;61064;51.654;5.476;2022-07-04T10:40:38;8.00;;;1.50;;
72920;SDS011;61064;51.654;5.476;2022-07-04T10:45:50;8.57;;;1.73;;
72920;SDS011;61064;51.654;5.476;2022-07-04T10:48:19;8.30;;;1.70;;
72920;SDS011;61064;51.654;5.476;2022-07-04T10:50:58;7.78;;;1.80;;
72920;SDS011;61064;51.654;5.476;2022-07-04T10:53:27;10.75;;;2.08;;
72920;SDS011;61064;51.654;5.476;2022-07-04T10:55:53;8.17;;;2.30;;
72920;SDS011;61064;51.654;5.476;2022-07-04T10:58:38;10.65;;;2.95;;
72920;SDS011;61064;51.654;5.476;2022-07-04T11:01:13;7.40;;;2.70;;
72920;SDS011;61064;51.654;5.476;2022-07-04T11:03:47;9.23;;;2.87;;
72920;SDS011;61064;51.654;5.476;2022-07-04T11:09:20;11.05;;;3.20;;
72920;SDS011;61064;51.654;5.476;2022-07-04T11:16:57;9.43;;;3.38;;
72920;SDS011;61064;51.654;5.476;2022-07-04T11:19:22;11.70;;;3.30;;
72920;SDS011;61064;51.654;5.476;2022-07-04T11:21:48;9.30;;;3.30;;
72920;SDS011;61064;51.654;5.476;2022-07-04T11:24:14;7.47;;;3.03;;
72920;SDS011;61064;51.654;5.476;2022-07-04T11:26:39;9.10;;;3.27;;
72920;SDS011;61064;51.654;5.476;2022-07-04T11:29:05;9.37;;;3.27;;
72920;SDS011;61064;51.654;5.476;2022-07-04T11:31:37;9.97;;;3.10;;
72920;SDS011;61064;51.654;5.476;2022-07-04T11:34:04;8.88;;;3.08;;
72920;SDS011;61064;51.654;5.476;2022-07-04T11:36:29;8.40;;;3.20;;
72920;SDS011;61064;51.654;5.476;2022-07-04T11:38:56;9.80;;;3.60;;
72920;SDS011;61064;51.654;5.476;2022-07-04T11:41:27;10.10;;;3.00;;
72920;SDS011;61064;51.654;5.476;2022-07-04T11:44:19;8.50;;;2.85;;
72920;SDS011;61064;51.654;5.476;2022-07-04T11:49:35;6.00;;;1.52;;
72920;SDS011;61064;51.654;5.476;2022-07-04T11:52:01;8.35;;;2.70;;
72920;SDS011;61064;51.654;5.476;2022-07-04T11:54:27;8.20;;;2.33;;
72920;SDS011;61064;51.654;5.476;2022-07-04T11:57:07;5.83;;;1.67;;
72920;SDS011;61064;51.654;5.476;2022-07-04T11:59:33;6.95;;;2.08;;
72920;SDS011;61064;51.654;5.476;2022-07-04T12:01:59;7.63;;;2.10;;
72920;SDS011;61064;51.654;5.476;2022-07-04T12:04:35;6.35;;;1.92;;
72920;SDS011;61064;51.654;5.476;2022-07-04T12:07:07;6.82;;;1.90;;
72920;SDS011;61064;51.654;5.476;2022-07-04T12:09:34;7.60;;;2.20;;
72920;SDS011;61064;51.654;5.476;2022-07-04T12:12:00;9.13;;;2.40;;
72920;SDS011;61064;51.654;5.476;2022-07-04T12:14:26;9.63;;;2.07;;
72920;SDS011;61064;51.654;5.476;2022-07-04T12:19:51;7.83;;;2.97;;
72920;SDS011;61064;51.654;5.476;2022-07-04T12:22:31;7.00;;;2.35;;
72920;SDS011;61064;51.654;5.476;2022-07-04T12:25:08;7.90;;;2.55;;
72920;SDS011;61064;51.654;5.476;2022-07-04T12:28:20;8.23;;;2.45;;
72920;SDS011;61064;51.654;5.476;2022-07-04T12:31:00;7.20;;;2.33;;
72920;SDS011;61064;51.654;5.476;2022-07-04T12:33:26;6.07;;;1.60;;
72920;SDS011;61064;51.654;5.476;2022-07-04T12:35:57;6.55;;;1.70;;
72920;SDS011;61064;51.654;5.476;2022-07-04T12:41:05;5.27;;;1.60;;
72920;SDS011;61064;51.654;5.476;2022-07-04T12:46:05;7.85;;;1.70;;
72920;SDS011;61064;51.654;5.476;2022-07-04T12:48:31;8.10;;;1.67;;
72920;SDS011;61064;51.654;5.476;2022-07-04T12:51:13;5.32;;;1.40;;
72920;SDS011;61064;51.654;5.476;2022-07-04T12:53:49;6.70;;;1.73;;
72920;SDS011;61064;51.654;5.476;2022-07-04T12:58:57;7.13;;;1.67;;
72920;SDS011;61064;51.654;5.476;2022-07-04T13:01:23;7.13;;;1.60;;
72920;SDS011;61064;51.654;5.476;2022-07-04T13:03:49;5.80;;;1.60;;
72920;SDS011;61064;51.654;5.476;2022-07-04T13:06:15;7.20;;;1.63;;
72920;SDS011;61064;51.654;5.476;2022-07-04T13:08:40;5.27;;;1.73;;
72920;SDS011;61064;51.654;5.476;2022-07-04T13:11:05;6.10;;;1.50;;
72920;SDS011;61064;51.654;5.476;2022-07-04T13:13:49;6.80;;;1.88;;
72920;SDS011;61064;51.654;5.476;2022-07-04T13:16:15;6.47;;;1.47;;
72920;SDS011;61064;51.654;5.476;2022-07-04T13:18:40;5.33;;;1.37;;
72920;SDS011;61064;51.654;5.476;2022-07-04T13:21:05;7.13;;;1.55;;
72920;SDS011;61064;51.654;5.476;2022-07-04T13:23:31;6.67;;;1.60;;
72920;SDS011;61064;51.654;5.476;2022-07-04T13:25:56;4.63;;;1.17;;
72920;SDS011;61064;51.654;5.476;2022-07-04T13:28:22;5.13;;;1.30;;
72920;SDS011;61064;51.654;5.476;2022-07-04T13:30:48;5.47;;;1.20;;
72920;SDS011;61064;51.654;5.476;2022-07-04T13:33:13;5.97;;;1.50;;
72920;SDS011;61064;51.654;5.476;2022-07-04T13:35:40;7.35;;;1.25;;
72920;SDS011;61064;51.654;5.476;2022-07-04T13:38:05;6.27;;;1.40;;
72920;SDS011;61064;51.654;5.476;2022-07-04T13:40:31;6.80;;;1.50;;
72920;SDS011;61064;51.654;5.476;2022-07-04T13:42:56;5.67;;;1.40;;
72920;SDS011;61064;51.654;5.476;2022-07-04T13:45:25;7.97;;;1.60;;
72920;SDS011;61064;51.654;5.476;2022-07-04T13:47:51;5.93;;;1.40;;
72920;SDS011;61064;51.654;5.476;2022-07-04T13:50:17;6.10;;;1.40;;
72920;SDS011;61064;51.654;5.476;2022-07-04T13:52:43;6.97;;;1.43;;
72920;SDS011;61064;51.654;5.476;2022-07-04T13:55:09;5.18;;;1.40;;
72920;SDS011;61064;51.654;5.476;2022-07-04T13:57:34;5.73;;;1.30;;
72920;SDS011;61064;51.654;5.476;2022-07-04T14:00:00;5.72;;;1.40;;
72920;SDS011;61064;51.654;5.476;2022-07-04T14:02:26;5.30;;;1.40;;
72920;SDS011;61064;51.654;5.476;2022-07-04T14:04:51;5.57;;;1.52;;
72920;SDS011;61064;51.654;5.476;2022-07-04T14:07:17;5.53;;;1.30;;
72920;SDS011;61064;51.654;5.476;2022-07-04T14:09:42;5.83;;;1.40;;
72920;SDS011;61064;51.654;5.476;2022-07-04T14:12:07;6.13;;;1.40;;
72920;SDS011;61064;51.654;5.476;2022-07-04T14:14:34;5.68;;;1.40;;
72920;SDS011;61064;51.654;5.476;2022-07-04T14:16:59;5.30;;;1.40;;
72920;SDS011;61064;51.654;5.476;2022-07-04T14:19:25;5.40;;;1.47;;
72920;SDS011;61064;51.654;5.476;2022-07-04T14:21:50;6.97;;;1.60;;
72920;SDS011;61064;51.654;5.476;2022-07-04T14:24:16;7.82;;;1.67;;
72920;SDS011;61064;51.654;5.476;2022-07-04T14:26:42;6.40;;;1.67;;
72920;SDS011;61064;51.654;5.476;2022-07-04T14:29:08;7.47;;;1.70;;
72920;SDS011;61064;51.654;5.476;2022-07-04T14:31:33;5.47;;;1.50;;
72920;SDS011;61064;51.654;5.476;2022-07-04T14:33:58;6.23;;;1.63;;
72920;SDS011;61064;51.654;5.476;2022-07-04T14:36:24;5.20;;;1.50;;
72920;SDS011;61064;51.654;5.476;2022-07-04T14:38:49;5.25;;;1.50;;
72920;SDS011;61064;51.654;5.476;2022-07-04T14:41:14;6.90;;;1.50;;
72920;SDS011;61064;51.654;5.476;2022-07-04T14:43:40;5.03;;;1.40;;
72920;SDS011;61064;51.654;5.476;2022-07-04T14:46:10;5.90;;;1.50;;
72920;SDS011;61064;51.654;5.476;2022-07-04T14:48:36;4.45;;;1.48;;
72920;SDS011;61064;51.654;5.476;2022-07-04T14:51:02;6.17;;;1.53;;
72920;SDS011;61064;51.654;5.476;2022-07-04T14:53:28;6.28;;;1.60;;
72920;SDS011;61064;51.654;5.476;2022-07-04T14:55:53;6.53;;;1.40;;
72920;SDS011;61064;51.654;5.476;2022-07-04T14:58:19;4.85;;;1.23;;
72920;SDS011;61064;51.654;5.476;2022-07-04T15:00:44;6.50;;;1.40;;
72920;SDS011;61064;51.654;5.476;2022-07-04T15:03:10;5.57;;;1.30;;
72920;SDS011;61064;51.654;5.476;2022-07-04T15:05:35;5.13;;;1.40;;
72920;SDS011;61064;51.654;5.476;2022-07-04T15:08:01;5.33;;;1.30;;
72920;SDS011;61064;51.654;5.476;2022-07-04T15:10:26;8.70;;;1.50;;
72920;SDS011;61064;51.654;5.476;2022-07-04T15:12:51;5.80;;;1.43;;
72920;SDS011;61064;51.654;5.476;2022-07-04T15:15:17;5.67;;;1.60;;
72920;SDS011;61064;51.654;5.476;2022-07-04T15:17:42;6.38;;;1.70;;
72920;SDS011;61064;51.654;5.476;2022-07-04T15:20:08;5.37;;;1.60;;